createdAt,value
2018-06-16T00:01:53.515Z,17.60
2018-06-16T00:04:22.321Z,17.70
2018-06-16T00:06:51.303Z,17.70
2018-06-16T00:09:20.142Z,17.70
2018-06-16T00:11:48.943Z,17.70
2018-06-16T00:14:17.741Z,17.70
2018-06-16T00:16:46.558Z,17.70
2018-06-16T00:19:15.354Z,17.70
2018-06-16T00:21:44.155Z,17.70
2018-06-16T00:24:12.967Z,17.70
2018-06-16T00:26:41.775Z,17.60
2018-06-16T00:29:10.573Z,17.50
2018-06-16T00:31:39.381Z,17.40
2018-06-16T00:34:08.178Z,17.30
2018-06-16T00:36:36.981Z,17.30
2018-06-16T00:39:07.144Z,17.30
2018-06-16T00:41:35.941Z,17.30
2018-06-16T00:44:04.729Z,17.40
2018-06-16T00:46:33.556Z,17.30
2018-06-16T00:49:02.348Z,17.30
2018-06-16T00:51:31.158Z,17.30
2018-06-16T00:53:59.959Z,17.30
2018-06-16T00:58:57.329Z,17.50
2018-06-16T01:01:26.133Z,17.50
2018-06-16T01:03:54.929Z,17.60
2018-06-16T01:06:23.721Z,17.60
2018-06-16T01:08:53.386Z,17.70
2018-06-16T01:11:22.195Z,17.70
2018-06-16T01:13:51.105Z,17.70
2018-06-16T01:16:19.951Z,17.70
2018-06-16T01:18:48.712Z,17.70
2018-06-16T01:21:17.520Z,17.70
2018-06-16T01:23:46.334Z,17.70
2018-06-16T01:26:15.135Z,17.60
2018-06-16T01:28:43.917Z,17.60
2018-06-16T01:31:12.725Z,17.60
2018-06-16T01:33:41.531Z,17.50
2018-06-16T01:36:10.334Z,17.40
2018-06-16T01:38:39.149Z,17.40
2018-06-16T01:43:36.454Z,17.40
2018-06-16T01:46:05.260Z,17.50
2018-06-16T01:48:34.076Z,17.60
2018-06-16T01:51:02.891Z,17.60
2018-06-16T01:53:31.731Z,17.60
2018-06-16T01:56:00.527Z,17.60
2018-06-16T01:58:29.363Z,17.60
2018-06-16T02:00:58.195Z,17.60
2018-06-16T02:03:27.060Z,17.60
2018-06-16T02:05:56.086Z,17.50
2018-06-16T02:08:24.888Z,17.60
2018-06-16T02:10:53.701Z,17.60
2018-06-16T02:13:22.510Z,17.50
2018-06-16T02:15:51.331Z,17.60
2018-06-16T02:18:20.171Z,17.60
2018-06-16T02:20:48.974Z,17.60
2018-06-16T02:23:17.790Z,17.60
2018-06-16T02:25:46.662Z,17.70
2018-06-16T02:28:15.482Z,17.70
2018-06-16T02:30:44.272Z,17.70
2018-06-16T02:33:13.075Z,17.60
2018-06-16T02:35:41.866Z,17.60
2018-06-16T02:38:10.703Z,17.60
2018-06-16T02:40:39.495Z,17.50
2018-06-16T02:43:08.314Z,17.50
2018-06-16T02:45:37.113Z,17.50
2018-06-16T02:48:05.912Z,17.50
2018-06-16T02:50:34.851Z,17.50
2018-06-16T02:53:03.540Z,17.50
2018-06-16T02:55:32.530Z,17.50
2018-06-16T02:58:01.346Z,17.40
2018-06-16T03:00:30.148Z,17.40
2018-06-16T03:02:58.955Z,17.40
2018-06-16T03:05:27.746Z,17.50
2018-06-16T03:07:56.543Z,17.50
2018-06-16T03:10:25.361Z,17.50
2018-06-16T03:12:54.168Z,17.60
2018-06-16T03:15:23.113Z,17.70
2018-06-16T03:17:51.916Z,17.70
2018-06-16T03:20:20.711Z,17.70
2018-06-16T03:22:49.510Z,17.70
2018-06-16T03:25:18.327Z,17.70
2018-06-16T03:27:47.133Z,17.80
2018-06-16T03:32:44.523Z,17.90
2018-06-16T03:35:13.435Z,17.90
2018-06-16T03:37:42.259Z,17.90
2018-06-16T03:40:11.059Z,17.90
2018-06-16T03:42:39.885Z,17.90
2018-06-16T03:45:08.668Z,17.90
2018-06-16T03:47:37.472Z,18.00
2018-06-16T03:50:06.287Z,18.00
2018-06-16T03:52:35.077Z,18.10
2018-06-16T03:55:03.956Z,18.00
2018-06-16T03:57:32.777Z,18.00
2018-06-16T04:00:01.563Z,18.00
2018-06-16T04:02:30.499Z,18.00
2018-06-16T04:04:59.312Z,18.00
2018-06-16T04:07:28.124Z,18.00
2018-06-16T04:09:56.923Z,18.00
2018-06-16T04:12:25.741Z,18.00
2018-06-16T04:14:54.536Z,18.00
2018-06-16T04:17:23.343Z,18.00
2018-06-16T04:19:52.939Z,18.10
2018-06-16T04:22:22.027Z,18.10
2018-06-16T04:24:50.841Z,18.10
2018-06-16T04:27:19.652Z,18.10
2018-06-16T04:29:48.447Z,18.20
2018-06-16T04:32:17.262Z,18.20
2018-06-16T04:34:46.150Z,18.20
2018-06-16T04:37:14.892Z,18.20
2018-06-16T04:39:43.695Z,18.20
2018-06-16T04:42:12.499Z,18.20
2018-06-16T04:44:41.305Z,18.20
2018-06-16T04:47:10.104Z,18.30
2018-06-16T04:49:38.907Z,18.30
2018-06-16T04:52:07.699Z,18.40
2018-06-16T04:54:36.495Z,18.50
2018-06-16T04:57:05.348Z,18.60
2018-06-16T04:59:34.121Z,18.80
2018-06-16T05:02:02.931Z,19.00
2018-06-16T05:04:31.747Z,19.00
2018-06-16T05:07:00.657Z,19.20
2018-06-16T05:09:29.433Z,19.30
2018-06-16T05:11:58.238Z,19.50
2018-06-16T05:14:27.065Z,19.60
2018-06-16T05:16:57.447Z,19.90
2018-06-16T05:19:26.347Z,19.90
2018-06-16T05:21:55.241Z,20.00
2018-06-16T05:24:24.029Z,20.10
2018-06-16T05:26:52.855Z,20.10
2018-06-16T05:29:21.708Z,20.30
2018-06-16T05:31:50.603Z,20.40
2018-06-16T05:36:47.921Z,20.50
2018-06-16T05:39:16.723Z,20.80
2018-06-16T05:41:45.555Z,21.00
2018-06-16T05:44:14.967Z,21.20
2018-06-16T05:46:43.781Z,21.30
2018-06-16T05:49:12.668Z,21.40
2018-06-16T05:51:41.519Z,21.50
2018-06-16T05:54:10.439Z,21.70
2018-06-16T05:56:39.272Z,21.80
2018-06-16T05:59:08.075Z,22.00
2018-06-16T06:01:36.899Z,22.10
2018-06-16T06:04:06.116Z,22.30
2018-06-16T06:06:34.947Z,22.50
2018-06-16T06:09:05.466Z,22.50
2018-06-16T06:11:34.291Z,22.70
2018-06-16T06:14:03.104Z,22.70
2018-06-16T06:16:32.097Z,22.80
2018-06-16T06:19:00.981Z,22.90
2018-06-16T06:21:29.782Z,23.00
2018-06-16T06:23:58.580Z,23.00
2018-06-16T06:26:27.383Z,23.00
2018-06-16T06:28:56.352Z,23.20
2018-06-16T06:31:25.166Z,23.30
2018-06-16T06:33:54.411Z,23.40
2018-06-16T06:36:23.207Z,23.50
2018-06-16T06:38:52.024Z,23.30
2018-06-16T06:41:20.987Z,23.40
2018-06-16T06:43:49.878Z,23.30
2018-06-16T06:46:18.681Z,23.30
2018-06-16T06:48:47.500Z,23.50
2018-06-16T06:51:16.311Z,23.70
2018-06-16T06:53:45.177Z,23.70
2018-06-16T06:56:13.943Z,23.90
2018-06-16T06:58:42.776Z,24.00
2018-06-16T07:01:11.589Z,24.20
2018-06-16T07:03:40.507Z,24.80
2018-06-16T07:06:09.311Z,25.10
2018-06-16T07:08:38.119Z,25.50
2018-06-16T07:11:06.911Z,25.70
2018-06-16T07:13:35.739Z,25.50
2018-06-16T07:16:04.549Z,25.80
2018-06-16T07:18:33.360Z,26.20
2018-06-16T07:21:02.148Z,26.30
2018-06-16T07:23:31.046Z,26.40
2018-06-16T07:25:59.824Z,26.80
2018-06-16T07:28:28.627Z,27.00
2018-06-16T07:30:57.472Z,27.00
2018-06-16T07:33:26.353Z,27.00
2018-06-16T07:35:55.150Z,27.10
2018-06-16T07:38:23.945Z,27.20
2018-06-16T07:40:52.815Z,27.50
2018-06-16T07:43:21.615Z,27.30
2018-06-16T07:45:50.403Z,26.90
2018-06-16T07:48:19.195Z,26.50
2018-06-16T07:50:48.031Z,26.70
2018-06-16T07:53:16.834Z,26.70
2018-06-16T07:55:45.618Z,27.20
2018-06-16T07:58:14.431Z,27.60
2018-06-16T08:00:43.227Z,27.90
2018-06-16T08:03:12.033Z,28.20
2018-06-16T08:05:40.906Z,28.60
2018-06-16T08:08:09.724Z,28.90
2018-06-16T08:10:38.573Z,29.10
2018-06-16T08:13:07.403Z,29.20
2018-06-16T08:15:36.215Z,29.40
2018-06-16T08:18:05.100Z,29.50
2018-06-16T08:20:33.864Z,29.40
2018-06-16T08:23:03.067Z,29.20
2018-06-16T08:25:31.916Z,29.10
2018-06-16T08:28:00.719Z,28.80
2018-06-16T08:30:29.532Z,28.60
2018-06-16T08:32:58.330Z,28.20
2018-06-16T08:35:27.159Z,28.00
2018-06-16T08:37:55.971Z,28.00
2018-06-16T08:40:24.791Z,27.90
2018-06-16T08:42:53.603Z,27.90
2018-06-16T08:45:22.430Z,27.90
2018-06-16T08:47:51.237Z,27.90
2018-06-16T08:50:20.059Z,28.30
2018-06-16T08:52:48.875Z,28.10
2018-06-16T08:55:17.888Z,28.20
2018-06-16T08:57:46.684Z,28.50
2018-06-16T09:00:15.513Z,28.60
2018-06-16T09:02:44.325Z,28.90
2018-06-16T09:05:13.159Z,29.30
2018-06-16T09:07:41.959Z,29.30
2018-06-16T09:10:10.776Z,29.20
2018-06-16T09:12:39.578Z,29.10
2018-06-16T09:15:08.387Z,28.90
2018-06-16T09:17:37.201Z,28.90
2018-06-16T09:20:06.159Z,28.90
2018-06-16T09:22:35.057Z,28.70
2018-06-16T09:25:04.048Z,28.40
2018-06-16T09:27:32.855Z,28.10
2018-06-16T09:30:01.709Z,28.30
2018-06-16T09:32:30.500Z,28.70
2018-06-16T09:34:59.320Z,28.80
2018-06-16T09:37:28.119Z,29.30
2018-06-16T09:39:56.931Z,29.60
2018-06-16T09:42:25.752Z,29.70
2018-06-16T09:44:54.557Z,29.80
2018-06-16T09:47:23.362Z,29.80
2018-06-16T09:49:52.175Z,29.80
2018-06-16T09:52:21.003Z,29.70
2018-06-16T09:54:49.823Z,29.90
2018-06-16T09:57:18.651Z,29.70
2018-06-16T09:59:47.466Z,29.50
2018-06-16T10:02:16.359Z,29.30
2018-06-16T10:04:45.182Z,28.90
2018-06-16T10:07:14.007Z,28.50
2018-06-16T10:09:42.812Z,28.30
2018-06-16T10:12:11.619Z,28.20
2018-06-16T10:14:40.443Z,28.20
2018-06-16T10:17:09.252Z,28.20
2018-06-16T10:19:38.120Z,28.10
2018-06-16T10:22:06.994Z,28.10
2018-06-16T10:24:35.872Z,28.30
2018-06-16T10:27:04.680Z,28.50
2018-06-16T10:29:33.485Z,28.60
2018-06-16T10:32:02.295Z,28.70
2018-06-16T10:34:31.108Z,29.00
2018-06-16T10:36:59.920Z,29.20
2018-06-16T10:39:28.736Z,29.50
2018-06-16T10:41:57.569Z,29.80
2018-06-16T10:44:26.389Z,29.90
2018-06-16T10:46:55.248Z,29.70
2018-06-16T10:49:24.081Z,29.30
2018-06-16T10:51:52.907Z,29.20
2018-06-16T10:54:21.718Z,29.40
2018-06-16T10:56:50.530Z,29.70
2018-06-16T10:59:19.327Z,30.10
2018-06-16T11:01:48.135Z,30.40
2018-06-16T11:04:16.952Z,30.70
2018-06-16T11:06:45.788Z,30.70
2018-06-16T11:09:14.615Z,30.60
2018-06-16T11:11:43.400Z,30.30
2018-06-16T11:14:12.209Z,29.40
2018-06-16T11:16:41.100Z,29.20
2018-06-16T11:19:09.964Z,29.40
2018-06-16T11:21:38.709Z,29.70
2018-06-16T11:24:07.507Z,29.70
2018-06-16T11:26:36.292Z,29.20
2018-06-16T11:29:05.218Z,28.60
2018-06-16T11:31:34.185Z,28.10
2018-06-16T11:34:02.978Z,28.10
2018-06-16T11:36:31.774Z,27.80
2018-06-16T11:39:00.563Z,27.80
2018-06-16T11:41:29.350Z,28.20
2018-06-16T11:43:58.563Z,28.30
2018-06-16T11:46:27.423Z,28.40
2018-06-16T11:48:56.730Z,28.50
2018-06-16T11:51:25.533Z,28.40
2018-06-16T11:53:54.317Z,28.50
2018-06-16T11:58:51.623Z,28.50
2018-06-16T12:01:20.438Z,28.40
2018-06-16T12:03:49.230Z,28.30
2018-06-16T12:06:18.024Z,28.20
2018-06-16T12:08:46.811Z,28.20
2018-06-16T12:11:15.653Z,28.30
2018-06-16T12:13:44.520Z,28.30
2018-06-16T12:16:13.362Z,28.30
2018-06-16T12:18:42.263Z,28.10
2018-06-16T12:21:11.165Z,28.10
2018-06-16T12:23:39.976Z,28.40
2018-06-16T12:26:08.767Z,28.40
2018-06-16T12:28:37.589Z,28.50
2018-06-16T12:31:06.479Z,28.60
2018-06-16T12:33:35.293Z,28.40
2018-06-16T12:36:04.099Z,28.50
2018-06-16T12:38:32.941Z,28.70
2018-06-16T12:41:01.853Z,28.60
2018-06-16T12:43:30.791Z,28.40
2018-06-16T12:45:59.605Z,28.40
2018-06-16T12:48:28.444Z,28.40
2018-06-16T12:50:57.279Z,28.50
2018-06-16T12:53:26.055Z,28.50
2018-06-16T12:55:54.873Z,28.50
2018-06-16T12:58:23.684Z,28.70
2018-06-16T13:00:52.550Z,28.70
2018-06-16T13:03:21.338Z,28.70
2018-06-16T13:05:50.151Z,28.50
2018-06-16T13:08:18.952Z,28.40
2018-06-16T13:10:47.763Z,28.50
2018-06-16T13:13:16.561Z,28.50
2018-06-16T13:15:45.363Z,28.40
2018-06-16T13:18:14.210Z,28.40
2018-06-16T13:20:42.991Z,28.30
2018-06-16T13:23:11.841Z,28.30
2018-06-16T13:25:40.642Z,28.40
2018-06-16T13:28:09.428Z,28.30
2018-06-16T13:30:38.227Z,28.30
2018-06-16T13:33:07.016Z,28.10
2018-06-16T13:35:36.090Z,28.00
2018-06-16T13:38:05.226Z,27.90
2018-06-16T13:40:34.063Z,27.80
2018-06-16T13:43:02.909Z,27.80
2018-06-16T13:45:31.658Z,27.80
2018-06-16T13:48:00.455Z,27.60
2018-06-16T13:50:29.320Z,27.50
2018-06-16T13:52:58.414Z,27.40
2018-06-16T13:55:27.230Z,27.10
2018-06-16T13:57:56.035Z,26.90
2018-06-16T14:00:25.195Z,27.10
2018-06-16T14:02:53.994Z,27.30
2018-06-16T14:05:22.828Z,27.40
2018-06-16T14:07:51.920Z,27.60
2018-06-16T14:10:20.856Z,28.00
2018-06-16T14:12:49.985Z,28.30
2018-06-16T14:15:18.754Z,28.20
2018-06-16T14:17:47.550Z,28.20
2018-06-16T14:20:16.336Z,28.20
2018-06-16T14:22:45.132Z,28.20
2018-06-16T14:25:13.932Z,28.20
2018-06-16T14:27:42.776Z,28.30
2018-06-16T14:30:11.563Z,28.20
2018-06-16T14:32:40.373Z,28.20
2018-06-16T14:35:09.224Z,28.10
2018-06-16T14:37:38.020Z,28.00
2018-06-16T14:40:06.930Z,28.00
2018-06-16T14:42:35.814Z,28.00
2018-06-16T14:45:04.728Z,28.00
2018-06-16T14:47:33.588Z,27.90
2018-06-16T14:50:02.371Z,27.80
2018-06-16T14:52:31.208Z,27.80
2018-06-16T14:54:59.987Z,27.60
2018-06-16T14:57:28.807Z,27.50
2018-06-16T14:59:57.600Z,27.60
2018-06-16T15:02:26.395Z,27.60
2018-06-16T15:04:55.411Z,27.70
2018-06-16T15:07:23.989Z,27.70
2018-06-16T15:09:52.814Z,27.60
2018-06-16T15:12:21.600Z,27.60
2018-06-16T15:14:50.462Z,27.60
2018-06-16T15:17:19.267Z,27.80
2018-06-16T15:19:48.067Z,27.90
2018-06-16T15:22:16.875Z,28.00
2018-06-16T15:24:45.804Z,27.80
2018-06-16T15:27:14.625Z,27.60
2018-06-16T15:29:43.432Z,27.60
2018-06-16T15:32:12.275Z,27.70
2018-06-16T15:34:41.079Z,27.80
2018-06-16T15:37:09.894Z,27.60
2018-06-16T15:42:07.317Z,27.30
2018-06-16T15:44:36.119Z,27.10
2018-06-16T15:47:04.935Z,27.10
2018-06-16T15:49:33.735Z,27.10
2018-06-16T15:52:02.531Z,27.20
2018-06-16T15:54:31.365Z,27.40
2018-06-16T15:57:00.173Z,27.60
2018-06-16T15:59:29.131Z,27.60
2018-06-16T16:01:58.036Z,27.40
2018-06-16T16:04:27.662Z,27.40
2018-06-16T16:06:56.534Z,27.50
2018-06-16T16:09:25.383Z,27.50
2018-06-16T16:11:54.184Z,27.50
2018-06-16T16:14:23.111Z,27.60
2018-06-16T16:16:51.912Z,27.70
2018-06-16T16:19:20.719Z,27.60
2018-06-16T16:24:18.057Z,27.90
2018-06-16T16:26:46.839Z,27.90
2018-06-16T16:29:15.650Z,27.90
2018-06-16T16:31:44.505Z,27.90
2018-06-16T16:34:13.322Z,27.80
2018-06-16T16:36:42.118Z,27.70
2018-06-16T16:39:11.062Z,27.60
2018-06-16T16:41:40.251Z,27.40
2018-06-16T16:44:09.063Z,27.10
2018-06-16T16:46:37.943Z,27.00
2018-06-16T16:49:07.040Z,26.80
2018-06-16T16:51:35.943Z,26.60
2018-06-16T16:54:04.749Z,26.50
2018-06-16T16:56:33.565Z,26.40
2018-06-16T16:59:02.379Z,26.20
2018-06-16T17:01:31.185Z,26.10
2018-06-16T17:04:00.106Z,26.00
2018-06-16T17:06:28.875Z,26.00
2018-06-16T17:08:57.747Z,26.00
2018-06-16T17:11:26.657Z,26.00
2018-06-16T17:13:55.459Z,26.00
2018-06-16T17:16:24.263Z,26.00
2018-06-16T17:18:53.119Z,25.90
2018-06-16T17:21:22.145Z,25.80
2018-06-16T17:23:50.932Z,25.80
2018-06-16T17:26:19.738Z,25.70
2018-06-16T17:28:48.553Z,25.70
2018-06-16T17:31:17.369Z,25.60
2018-06-16T17:33:48.784Z,25.60
2018-06-16T17:36:17.964Z,25.70
2018-06-16T17:38:46.761Z,25.60
2018-06-16T17:41:15.678Z,25.60
2018-06-16T17:43:44.492Z,25.60
2018-06-16T17:46:13.333Z,25.60
2018-06-16T17:48:42.141Z,25.60
2018-06-16T17:51:10.986Z,25.60
2018-06-16T17:53:39.793Z,25.60
2018-06-16T17:56:08.608Z,25.50
2018-06-16T17:58:37.502Z,25.40
2018-06-16T18:01:06.328Z,25.40
2018-06-16T18:03:35.175Z,25.30
2018-06-16T18:06:04.004Z,25.20
2018-06-16T18:08:33.116Z,25.10
2018-06-16T18:11:07.385Z,25.10
2018-06-16T18:13:36.647Z,25.00
2018-06-16T18:16:05.706Z,24.90
2018-06-16T18:18:34.559Z,24.80
2018-06-16T18:21:03.375Z,24.70
2018-06-16T18:23:32.180Z,24.70
2018-06-16T18:26:00.991Z,24.60
2018-06-16T18:28:29.809Z,24.50
2018-06-16T18:30:58.619Z,24.50
2018-06-16T18:33:28.013Z,24.40
2018-06-16T18:35:56.850Z,24.40
2018-06-16T18:38:25.671Z,24.40
2018-06-16T18:40:54.602Z,24.30
2018-06-16T18:43:23.419Z,24.30
2018-06-16T18:45:52.235Z,24.20
2018-06-16T18:48:21.139Z,24.10
2018-06-16T18:50:49.939Z,24.10
2018-06-16T18:53:18.773Z,23.90
2018-06-16T18:55:47.591Z,23.80
2018-06-16T18:58:16.655Z,23.70
2018-06-16T19:00:45.480Z,23.50
2018-06-16T19:03:14.298Z,23.30
2018-06-16T19:05:43.134Z,23.10
2018-06-16T19:08:11.955Z,23.00
2018-06-16T19:10:40.886Z,22.80
2018-06-16T19:13:09.737Z,22.60
2018-06-16T19:15:38.552Z,22.40
2018-06-16T19:18:07.351Z,22.30
2018-06-16T19:20:36.219Z,22.10
2018-06-16T19:23:05.280Z,22.00
2018-06-16T19:25:34.012Z,21.90
2018-06-16T19:28:02.825Z,21.70
2018-06-16T19:30:32.231Z,21.60
2018-06-16T19:33:01.173Z,21.40
2018-06-16T19:35:29.981Z,21.30
2018-06-16T19:37:58.841Z,21.20
2018-06-16T19:40:27.635Z,21.20
2018-06-16T19:42:56.461Z,21.10
2018-06-16T19:45:25.285Z,21.00
2018-06-16T19:47:54.095Z,20.90
2018-06-16T19:50:23.105Z,20.80
2018-06-16T19:52:51.975Z,20.70
2018-06-16T19:55:20.813Z,20.60
2018-06-16T19:57:49.727Z,20.50
2018-06-16T20:00:18.540Z,20.40
2018-06-16T20:02:47.412Z,20.40
2018-06-16T20:05:16.220Z,20.30
2018-06-16T20:07:45.020Z,20.20
2018-06-16T20:10:14.588Z,20.20
2018-06-16T20:12:43.418Z,20.10
2018-06-16T20:15:12.237Z,20.10
2018-06-16T20:17:41.033Z,20.00
2018-06-16T20:20:09.851Z,19.90
2018-06-16T20:22:38.656Z,19.90
2018-06-16T20:25:07.543Z,19.90
2018-06-16T20:27:36.412Z,19.90
2018-06-16T20:30:05.239Z,19.80
2018-06-16T20:32:34.035Z,19.70
2018-06-16T20:35:02.831Z,19.70
2018-06-16T20:37:31.707Z,19.60
2018-06-16T20:42:29.415Z,19.60
2018-06-16T20:44:58.202Z,19.50
2018-06-16T20:47:26.991Z,19.50
2018-06-16T20:49:55.797Z,19.50
2018-06-16T20:52:24.605Z,19.50
2018-06-16T20:54:53.604Z,19.60
2018-06-16T20:57:22.409Z,19.60
2018-06-16T20:59:51.203Z,19.60
2018-06-16T21:02:20.086Z,19.50
2018-06-16T21:04:49.704Z,19.60
2018-06-16T21:07:18.519Z,19.60
2018-06-16T21:09:47.389Z,19.60
2018-06-16T21:12:16.183Z,19.70
2018-06-16T21:14:45.024Z,19.70
2018-06-16T21:17:13.838Z,19.70
2018-06-16T21:19:42.704Z,19.80
2018-06-16T21:22:11.515Z,19.90
2018-06-16T21:24:40.574Z,19.90
2018-06-16T21:27:09.769Z,19.90
2018-06-16T21:29:38.754Z,19.90
2018-06-16T21:32:07.571Z,20.00
2018-06-16T21:34:36.375Z,20.00
2018-06-16T21:37:05.228Z,20.00
2018-06-16T21:39:34.145Z,20.00
2018-06-16T21:42:02.965Z,20.00
2018-06-16T21:44:31.803Z,20.00
2018-06-16T21:47:00.625Z,20.00
2018-06-16T21:49:29.442Z,19.90
2018-06-16T21:51:58.260Z,19.90
2018-06-16T21:54:27.073Z,19.80
2018-06-16T21:56:55.891Z,19.80
2018-06-16T21:59:24.719Z,19.70
2018-06-16T22:01:53.607Z,19.70
2018-06-16T22:04:22.539Z,19.60
2018-06-16T22:06:51.325Z,19.60
2018-06-16T22:09:20.136Z,19.50
2018-06-16T22:11:48.972Z,19.50
2018-06-16T22:14:17.787Z,19.50
2018-06-16T22:16:46.600Z,19.50
2018-06-16T22:19:15.403Z,19.50
2018-06-16T22:21:44.208Z,19.50
2018-06-16T22:24:13.009Z,19.50
2018-06-16T22:26:41.802Z,19.40
2018-06-16T22:29:10.631Z,19.40
2018-06-16T22:31:39.437Z,19.40
2018-06-16T22:34:08.243Z,19.30
2018-06-16T22:36:37.071Z,19.30
2018-06-16T22:39:08.818Z,19.40
2018-06-16T22:41:37.615Z,19.40
2018-06-16T22:44:06.694Z,19.40
2018-06-16T22:46:35.519Z,19.50
2018-06-16T22:49:04.390Z,19.50
2018-06-16T22:51:33.199Z,19.50
2018-06-16T22:54:01.996Z,19.50
2018-06-16T22:56:30.783Z,19.50
2018-06-16T22:58:59.582Z,19.40
2018-06-16T23:01:28.403Z,19.40
2018-06-16T23:03:57.205Z,19.30
2018-06-16T23:06:26.020Z,19.30
2018-06-16T23:08:54.822Z,19.20
2018-06-16T23:11:23.652Z,19.20
2018-06-16T23:13:52.631Z,19.10
2018-06-16T23:16:21.420Z,19.00
2018-06-16T23:18:50.237Z,19.00
2018-06-16T23:21:19.033Z,19.00
2018-06-16T23:23:47.835Z,18.90
2018-06-16T23:26:16.627Z,18.90
2018-06-16T23:28:45.437Z,18.90
2018-06-16T23:31:14.471Z,18.90
2018-06-16T23:33:43.263Z,18.90
2018-06-16T23:36:12.059Z,18.90
2018-06-16T23:38:40.877Z,18.90
2018-06-16T23:41:09.660Z,18.90
2018-06-16T23:43:38.468Z,19.00
2018-06-16T23:46:07.268Z,18.90
2018-06-16T23:48:36.063Z,18.90
2018-06-16T23:51:04.872Z,18.80
2018-06-16T23:53:33.672Z,18.70
2018-06-16T23:56:02.477Z,18.60
2018-06-16T23:58:31.335Z,18.50
